Time;durP1;ratioP1;P1;durP2;ratioP2;P2;SDS_P1;SDS_P2;PMS_P1;PMS_P2;Temp;Humidity;BMP_temperature;BMP_pressure;BME280_temperature;BME280_humidity;BME280_pressure;Samples;Min_cycle;Max_cycle;Signal;HPM_P1;HPM_P2
2020/12/12 00:01:57;;;;;;;11.83;8.43;;;5.70;99.90;;;;;;4953707;28;20517;-86
2020/12/12 00:04:25;;;;;;;11.30;8.33;;;5.70;99.90;;;;;;4954078;28;20261;-88
2020/12/12 00:06:51;;;;;;;12.10;8.90;;;5.80;99.90;;;;;;4955391;28;20495;-85
2020/12/12 00:09:17;;;;;;;10.60;7.87;;;5.80;99.90;;;;;;4952130;28;20481;-83
2020/12/12 00:11:52;;;;;;;12.20;9.23;;;5.80;99.90;;;;;;4952275;28;20193;-84
2020/12/12 00:14:17;;;;;;;9.87;8.20;;;5.90;99.90;;;;;;4936020;28;20269;-86
2020/12/12 00:17:00;;;;;;;;;;;;;;;;;;;;;
2020/12/12 00:19:36;;;;;;;11.07;8.50;;;5.90;99.90;;;;;;4967141;28;20222;-85
2020/12/12 00:22:05;;;;;;;10.37;7.50;;;6.00;99.90;;;;;;4951277;28;20496;-83
2020/12/12 00:24:34;;;;;;;12.33;8.53;;;6.00;99.90;;;;;;4946680;28;20524;-86
2020/12/12 00:27:10;;;;;;;9.80;7.10;;;6.00;99.90;;;;;;4952524;28;20542;-90
2020/12/12 00:29:42;;;;;;;11.80;8.50;;;6.10;99.90;;;;;;4945159;28;20883;-86
2020/12/12 00:32:11;;;;;;;12.00;8.50;;;6.20;99.90;;;;;;4955013;28;20190;-88
2020/12/12 00:34:54;;;;;;;9.93;7.37;;;6.30;99.90;;;;;;4951201;28;20425;-86
2020/12/12 00:37:25;;;;;;;9.67;6.90;;;6.30;99.90;;;;;;4969823;28;20488;-86
2020/12/12 00:39:51;;;;;;;11.57;7.30;;;6.20;99.90;;;;;;4966072;28;20984;-85
2020/12/12 00:42:19;;;;;;;8.57;6.67;;;6.10;99.90;;;;;;4970465;28;20530;-84
2020/12/12 00:44:45;;;;;;;11.00;6.80;;;6.10;99.90;;;;;;4941378;28;20198;-87
2020/12/12 00:50:03;;;;;;;9.80;7.47;;;6.00;99.90;;;;;;4948156;28;20229;-91
2020/12/12 00:52:29;;;;;;;8.93;6.63;;;5.90;99.90;;;;;;4963445;28;20457;-87
2020/12/12 00:54:54;;;;;;;8.63;6.33;;;5.90;99.90;;;;;;4935562;28;20477;-89
2020/12/12 00:57:44;;;;;;;8.33;5.80;;;5.80;99.90;;;;;;4964914;28;20271;-89
2020/12/12 01:00:10;;;;;;;13.57;6.60;;;5.80;99.90;;;;;;4955047;28;20231;-89
2020/12/12 01:02:43;;;;;;;6.67;6.00;;;5.80;99.90;;;;;;4967650;28;20473;-88
2020/12/12 01:05:08;;;;;;;12.10;7.20;;;5.80;99.90;;;;;;4953072;28;20381;-88
2020/12/12 01:07:45;;;;;;;6.07;5.47;;;5.80;99.90;;;;;;4971285;28;20453;-87
2020/12/12 01:10:16;;;;;;;7.47;6.27;;;5.80;99.90;;;;;;4957554;28;20210;-88
2020/12/12 01:12:53;;;;;;;10.30;6.90;;;5.80;99.90;;;;;;4969726;28;20548;-87
2020/12/12 01:16:19;;;;;;;10.40;6.33;;;5.80;99.90;;;;;;4967806;28;20430;-88
2020/12/12 01:25:10;;;;;;;6.30;5.10;;;6.10;99.90;;;;;;4976608;28;20809;-91
2020/12/12 01:33:46;;;;;;;5.97;5.17;;;6.30;99.90;;;;;;4951983;26;20614;-88
2020/12/12 01:36:12;;;;;;;7.10;5.30;;;6.30;99.90;;;;;;4959871;28;20422;-90
2020/12/12 01:42:19;;;;;;;7.13;5.30;;;6.30;99.90;;;;;;4891756;29;20252;-88
2020/12/12 01:45:19;;;;;;;7.30;5.73;;;6.30;99.90;;;;;;4879876;28;20858;-87
2020/12/12 01:47:47;;;;;;;14.97;6.77;;;6.20;99.90;;;;;;4949803;28;20432;-89
2020/12/12 01:50:21;;;;;;;7.10;5.97;;;6.30;99.90;;;;;;4949936;28;20970;-89
2020/12/12 01:52:50;;;;;;;10.33;5.90;;;6.30;99.90;;;;;;4953332;28;20437;-87
2020/12/12 01:55:22;;;;;;;6.97;5.63;;;6.50;99.90;;;;;;4948918;28;20435;-88
2020/12/12 01:57:52;;;;;;;12.77;5.57;;;6.50;99.90;;;;;;4953349;28;20441;-89
2020/12/12 02:00:32;;;;;;;7.70;5.20;;;6.60;99.90;;;;;;4948841;28;20474;-86
2020/12/12 02:03:12;;;;;;;11.30;6.10;;;6.60;99.90;;;;;;4931904;28;20435;-87
2020/12/12 02:05:39;;;;;;;7.80;5.87;;;6.60;99.90;;;;;;4962258;28;20456;-86
2020/12/12 02:08:23;;;;;;;6.80;5.43;;;6.70;99.90;;;;;;4949609;28;20809;-87
2020/12/12 02:10:52;;;;;;;5.90;5.30;;;6.60;99.90;;;;;;4949799;28;21703;-87
2020/12/12 02:13:20;;;;;;;9.70;7.07;;;6.50;99.90;;;;;;4963650;28;20439;-86
2020/12/12 02:15:58;;;;;;;7.27;5.50;;;6.50;99.90;;;;;;4943535;28;20837;-88
2020/12/12 02:18:38;;;;;;;6.70;5.93;;;6.50;99.90;;;;;;4946046;28;20509;-87
2020/12/12 02:21:05;;;;;;;7.63;5.67;;;6.60;99.90;;;;;;4945522;28;20447;-85
2020/12/12 02:23:30;;;;;;;6.87;5.50;;;6.60;99.90;;;;;;4934057;28;20467;-90
2020/12/12 02:25:56;;;;;;;8.00;6.20;;;6.50;99.90;;;;;;4946109;28;20446;-88
2020/12/12 02:28:33;;;;;;;9.97;5.87;;;6.50;99.90;;;;;;4946436;28;20766;-88
2020/12/12 02:30:58;;;;;;;6.20;5.30;;;6.50;99.90;;;;;;4945730;28;20185;-88
2020/12/12 02:33:24;;;;;;;10.60;6.80;;;6.40;99.90;;;;;;4948254;28;20517;-89
2020/12/12 02:35:50;;;;;;;6.47;5.83;;;6.40;99.90;;;;;;4948405;28;20195;-89
2020/12/12 02:38:15;;;;;;;7.87;5.83;;;6.40;99.90;;;;;;4945392;28;20194;-88
2020/12/12 02:40:56;;;;;;;7.17;5.70;;;6.40;99.90;;;;;;4950096;28;20270;-89
2020/12/12 02:43:28;;;;;;;6.77;5.77;;;6.50;99.90;;;;;;4946795;28;20186;-89
2020/12/12 02:45:53;;;;;;;6.83;5.50;;;6.60;99.90;;;;;;4974139;28;20513;-92
2020/12/12 02:48:22;;;;;;;5.70;5.00;;;6.60;99.90;;;;;;4958275;28;20470;-93
2020/12/12 02:50:50;;;;;;;6.70;5.23;;;6.50;99.90;;;;;;4971539;28;20183;-91
2020/12/12 02:53:15;;;;;;;7.50;5.23;;;6.50;99.90;;;;;;4973557;28;20459;-92
2020/12/12 02:55:41;;;;;;;6.47;5.10;;;6.40;99.90;;;;;;4970120;28;20431;-92
2020/12/12 02:58:12;;;;;;;7.90;5.53;;;6.40;99.90;;;;;;4972230;28;20343;-88
2020/12/12 03:00:38;;;;;;;8.63;5.80;;;6.30;99.90;;;;;;4971662;28;20180;-91
2020/12/12 03:03:07;;;;;;;5.70;4.90;;;6.20;99.90;;;;;;4970470;28;20533;-88
2020/12/12 03:05:33;;;;;;;6.20;4.70;;;6.20;99.90;;;;;;4970278;28;20214;-91
2020/12/12 04:05:17;;;;;;;6.77;5.40;;;5.70;99.90;;;;;;1215731;23;20920;-89
2020/12/12 04:08:26;;;;;;;7.23;5.93;;;5.70;99.90;;;;;;4970744;28;20457;-88
2020/12/12 05:39:40;;;;;;;9.77;6.83;;;5.90;99.90;;;;;;5080364;23;20492;-88
2020/12/12 05:42:06;;;;;;;11.90;7.13;;;6.00;99.90;;;;;;4973816;28;20450;-89
2020/12/12 05:44:32;;;;;;;13.80;9.00;;;6.00;99.90;;;;;;4965160;28;20203;-89
2020/12/12 05:47:10;;;;;;;10.00;7.40;;;6.00;99.90;;;;;;4971254;28;20565;-88
2020/12/12 05:56:25;;;;;;;11.00;7.50;;;6.10;99.90;;;;;;5235931;23;20522;-88
2020/12/12 05:58:55;;;;;;;10.53;7.40;;;6.10;99.90;;;;;;4953355;28;20446;-89
2020/12/12 06:01:26;;;;;;;12.60;7.70;;;6.10;99.90;;;;;;4951644;28;20439;-88
2020/12/12 06:03:54;;;;;;;10.70;7.90;;;6.10;99.90;;;;;;4954995;28;20438;-88
2020/12/12 06:06:25;;;;;;;9.37;7.27;;;6.10;99.90;;;;;;4966234;28;20459;-87
2020/12/12 06:09:05;;;;;;;14.27;7.73;;;6.20;99.90;;;;;;4951656;28;20537;-88
2020/12/12 06:11:35;;;;;;;15.77;9.57;;;6.30;99.90;;;;;;4966300;28;20446;-89
2020/12/12 06:38:38;;;;;;;12.83;7.30;;;6.40;99.90;;;;;;5051482;23;20501;-88
2020/12/12 06:41:10;;;;;;;11.60;7.70;;;6.40;99.90;;;;;;4937297;28;20461;-89
2020/12/12 06:43:42;;;;;;;10.97;7.97;;;6.30;99.90;;;;;;4941758;28;20498;-88
2020/12/12 06:46:11;;;;;;;11.00;7.70;;;6.30;99.90;;;;;;4958945;28;20808;-89
2020/12/12 06:48:36;;;;;;;14.17;7.73;;;6.20;99.90;;;;;;4957265;28;20473;-88
2020/12/12 06:51:02;;;;;;;12.63;7.93;;;6.30;99.90;;;;;;4960442;28;20443;-88
2020/12/12 06:53:37;;;;;;;11.00;6.77;;;6.30;99.90;;;;;;4961488;28;20264;-87
2020/12/12 06:56:20;;;;;;;14.23;8.57;;;6.30;99.90;;;;;;4970192;28;20744;-87
2020/12/12 06:58:49;;;;;;;11.27;7.20;;;6.30;99.90;;;;;;4958978;28;20473;-88
2020/12/12 07:01:25;;;;;;;16.10;7.77;;;6.30;99.90;;;;;;4952477;28;20446;-88
2020/12/12 07:04:09;;;;;;;11.17;7.97;;;6.30;99.90;;;;;;4952412;28;20442;-88
2020/12/12 07:06:38;;;;;;;16.57;8.10;;;6.30;99.90;;;;;;4960087;28;20504;-89
2020/12/12 07:09:11;;;;;;;14.90;8.37;;;6.30;99.90;;;;;;4956765;28;20500;-87
2020/12/12 07:11:37;;;;;;;11.10;6.83;;;6.40;99.90;;;;;;4966842;28;20439;-88
2020/12/12 07:14:03;;;;;;;10.57;7.20;;;6.30;99.90;;;;;;4957141;28;20514;-84
2020/12/12 07:16:29;;;;;;;12.90;8.20;;;6.30;99.90;;;;;;4956953;28;20466;-88
2020/12/12 07:33:11;;;;;;;10.60;8.87;;;6.50;99.90;;;;;;5368843;23;20497;-89
2020/12/12 07:35:37;;;;;;;14.63;8.00;;;6.40;99.90;;;;;;4953476;28;20437;-85
2020/12/12 07:38:35;;;;;;;;;;;;;;;;;;;;;
2020/12/12 07:41:12;;;;;;;15.00;8.60;;;6.40;99.90;;;;;;4935626;29;20263;-88
2020/12/12 07:44:31;;;;;;;11.97;8.07;;;6.40;99.90;;;;;;4932912;29;20442;-87
2020/12/12 07:47:13;;;;;;;11.83;8.40;;;6.60;99.90;;;;;;4932495;28;20440;-88
2020/12/12 07:50:27;;;;;;;;;;;;;;;;;;;;;
2020/12/12 07:52:51;;;;;;;13.07;8.37;;;6.60;99.90;;;;;;4940801;28;20435;-87
2020/12/12 07:55:21;;;;;;;13.60;8.30;;;6.60;99.90;;;;;;4932206;29;20439;-89
2020/12/12 07:57:55;;;;;;;12.40;7.33;;;6.60;99.90;;;;;;4932505;29;20709;-85
2020/12/12 08:00:20;;;;;;;12.93;8.50;;;6.60;99.90;;;;;;4938949;29;20464;-89
2020/12/12 08:03:03;;;;;;;15.07;8.73;;;6.60;99.90;;;;;;4939338;29;20518;-85
2020/12/12 08:05:29;;;;;;;11.50;8.00;;;6.70;99.90;;;;;;4935712;29;20509;-88
2020/12/12 08:07:57;;;;;;;15.63;8.50;;;6.80;99.90;;;;;;4932668;29;20803;-87
2020/12/12 08:10:58;;;;;;;15.80;8.50;;;6.70;99.90;;;;;;4933093;29;20255;-88
2020/12/12 08:17:44;;;;;;;15.30;9.00;;;6.70;99.90;;;;;;4915424;29;20858;-89
2020/12/12 08:20:23;;;;;;;13.57;8.40;;;6.80;99.90;;;;;;4973075;23;20560;-88
2020/12/12 08:22:50;;;;;;;18.67;9.63;;;6.80;99.90;;;;;;4958681;28;20453;-86
2020/12/12 08:25:20;;;;;;;15.37;9.10;;;6.90;99.90;;;;;;4939252;28;20992;-89
2020/12/12 08:27:59;;;;;;;;;;;;;;;;;;;;;
2020/12/12 08:33:59;;;;;;;11.70;8.30;;;7.20;99.90;;;;;;4874975;29;20534;-88
2020/12/12 08:42:32;;;;;;;12.83;8.03;;;7.20;99.90;;;;;;5412114;23;20493;-89
2020/12/12 08:45:20;;;;;;;12.77;7.87;;;7.10;99.90;;;;;;4954886;28;20437;-89
2020/12/12 09:01:41;;;;;;;14.40;8.50;;;7.70;99.90;;;;;;4685070;23;20511;-87
2020/12/12 09:04:10;;;;;;;12.63;8.60;;;7.70;99.90;;;;;;4972760;28;20452;-88
2020/12/12 09:06:41;;;;;;;15.33;8.80;;;7.70;99.90;;;;;;4978383;28;20426;-88
2020/12/12 09:09:34;;;;;;;12.50;8.90;;;7.70;99.90;;;;;;4988118;28;20756;-88
2020/12/12 09:31:09;;;;;;;14.97;10.23;;;7.70;99.90;;;;;;5090022;23;20497;-88
2020/12/12 09:33:35;;;;;;;15.83;9.97;;;7.80;99.90;;;;;;4971335;28;20503;-88
2020/12/12 09:36:03;;;;;;;12.67;9.60;;;7.70;99.90;;;;;;4971606;28;20451;-88
2020/12/12 09:43:50;;;;;;;12.03;9.23;;;7.80;99.90;;;;;;4636466;26;20501;-88
2020/12/12 09:46:19;;;;;;;13.50;9.47;;;7.90;99.90;;;;;;4968716;28;20500;-88
2020/12/12 09:48:54;;;;;;;15.30;10.47;;;8.00;99.90;;;;;;4959537;28;20563;-88
2020/12/12 09:55:37;;;;;;;;;;;;;;;;;;;;;
2020/12/12 10:14:47;;;;;;;9.03;6.80;;;8.40;99.90;;;;;;5422248;23;20494;-85
2020/12/12 10:17:15;;;;;;;10.03;7.70;;;8.40;99.90;;;;;;4974941;28;20435;-88
2020/12/12 10:19:40;;;;;;;8.33;5.57;;;8.40;99.90;;;;;;4941834;28;20567;-88
2020/12/12 10:22:06;;;;;;;6.90;6.10;;;8.50;99.90;;;;;;4949513;29;20478;-89
2020/12/12 10:24:32;;;;;;;12.43;6.60;;;8.50;99.90;;;;;;4944632;29;20223;-86
2020/12/12 10:26:57;;;;;;;12.43;6.93;;;8.50;99.90;;;;;;4944979;28;20203;-86
2020/12/12 10:29:25;;;;;;;5.73;5.13;;;8.60;99.90;;;;;;4940533;28;20823;-88
2020/12/12 10:31:51;;;;;;;8.33;5.80;;;8.70;99.90;;;;;;4934721;29;20750;-86
2020/12/12 10:34:16;;;;;;;5.73;5.10;;;8.70;99.90;;;;;;4920879;29;20431;-86
2020/12/12 10:36:45;;;;;;;7.40;4.83;;;8.60;99.90;;;;;;4947276;28;20279;-87
2020/12/12 10:39:11;;;;;;;9.07;5.23;;;8.50;99.90;;;;;;4935667;29;20226;-88
2020/12/12 10:41:45;;;;;;;5.87;4.80;;;8.50;99.90;;;;;;4939477;28;20443;-88
2020/12/12 10:44:11;;;;;;;7.70;4.80;;;8.40;99.90;;;;;;4945695;29;20650;-86
2020/12/12 10:46:40;;;;;;;5.97;4.63;;;8.40;99.90;;;;;;4942260;29;20749;-84
2020/12/12 10:49:11;;;;;;;5.50;4.37;;;8.40;99.90;;;;;;4931772;29;20230;-87
2020/12/12 10:51:45;;;;;;;5.37;3.90;;;8.40;99.90;;;;;;4936690;29;20806;-87
2020/12/12 10:54:10;;;;;;;5.60;4.50;;;8.40;99.90;;;;;;4906575;29;20455;-88
2020/12/12 10:56:45;;;;;;;6.47;3.77;;;8.40;99.90;;;;;;4928815;29;20194;-89
2020/12/12 10:59:14;;;;;;;5.87;3.50;;;8.40;99.90;;;;;;4932901;28;20550;-91
2020/12/12 11:01:42;;;;;;;3.80;3.00;;;8.40;99.90;;;;;;4936859;29;20427;-90
2020/12/12 11:04:26;;;;;;;3.37;3.07;;;8.40;99.90;;;;;;4931426;29;20446;-87
2020/12/12 11:06:53;;;;;;;4.70;3.20;;;8.40;99.90;;;;;;4926844;29;20466;-89
2020/12/12 11:09:21;;;;;;;3.33;2.93;;;8.40;99.90;;;;;;4933681;28;20479;-92
2020/12/12 11:19:27;;;;;;;;;;;;;;;;;;;;;
2020/12/12 11:22:26;;;;;;;4.17;3.77;;;8.50;99.90;;;;;;4904689;29;20198;-88
2020/12/12 11:25:16;;;;;;;5.80;3.50;;;8.60;99.90;;;;;;4938527;28;20639;-88
2020/12/12 11:28:01;;;;;;;5.47;4.60;;;8.60;99.90;;;;;;4928470;29;20454;-90
2020/12/12 11:30:54;;;;;;;6.43;4.70;;;8.60;99.90;;;;;;4922384;29;20502;-89
2020/12/12 11:33:23;;;;;;;6.50;4.27;;;8.60;99.90;;;;;;4930302;29;20432;-88
2020/12/12 11:53:03;;;;;;;;;;;;;;;;;;;;;
2020/12/12 11:55:58;;;;;;;;;;;;;;;;;;;;;
2020/12/12 12:34:43;;;;;;;6.33;4.70;;;9.10;99.90;;;;;;4960616;28;20853;-86
2020/12/12 12:37:20;;;;;;;4.70;4.20;;;9.00;99.90;;;;;;4942620;28;20465;-83
2020/12/12 12:40:19;;;;;;;;;;;;;;;;;;;;;
2020/12/12 12:43:08;;;;;;;;;;;;;;;;;;;;;
2020/12/12 12:46:01;;;;;;;5.37;4.20;;;9.00;99.90;;;;;;4966403;28;20441;-89
2020/12/12 12:48:27;;;;;;;6.33;4.90;;;8.90;99.90;;;;;;4945372;28;20467;-87
2020/12/12 12:50:56;;;;;;;5.87;4.40;;;8.90;99.90;;;;;;4962387;28;20422;-87
2020/12/12 12:54:03;;;;;;;;;;;;;;;;;;;;;
2020/12/12 12:56:43;;;;;;;5.10;3.70;;;9.00;99.90;;;;;;4966604;28;20455;-88
2020/12/12 12:59:26;;;;;;;4.43;3.57;;;9.00;99.90;;;;;;4941978;28;20501;-85
2020/12/12 13:02:03;;;;;;;6.33;3.80;;;8.90;99.90;;;;;;4958034;28;20475;-86
2020/12/12 13:04:59;;;;;;;4.23;3.53;;;8.90;99.90;;;;;;4948598;28;20441;-88
2020/12/12 13:10:59;;;;;;;;;;;;;;;;;;;;;
2020/12/12 13:23:27;;;;;;;3.37;3.07;;;8.80;99.90;;;;;;4965132;28;20450;-87
2020/12/12 13:26:23;;;;;;;4.53;3.07;;;8.70;99.90;;;;;;4947394;28;21500;-89
2020/12/12 13:31:59;;;;;;;3.60;2.77;;;8.60;99.90;;;;;;4957497;28;20460;-88
2020/12/12 13:34:32;;;;;;;3.63;3.33;;;8.60;99.90;;;;;;4944599;28;20488;-90
2020/12/12 13:37:06;;;;;;;4.80;3.27;;;8.60;99.90;;;;;;4950118;28;20577;-89
2020/12/12 13:39:35;;;;;;;4.70;3.77;;;8.60;99.90;;;;;;4954552;28;20829;-90
2020/12/12 13:45:15;;;;;;;7.90;4.00;;;8.60;99.90;;;;;;4961715;28;20198;-87
2020/12/12 13:47:58;;;;;;;4.50;3.30;;;8.70;99.90;;;;;;4948096;28;20857;-87
2020/12/12 13:50:26;;;;;;;3.83;3.13;;;8.70;99.90;;;;;;4935088;28;20505;-86
2020/12/12 13:53:38;;;;;;;3.33;3.03;;;8.70;99.90;;;;;;4945525;28;20452;-89
2020/12/12 13:59:26;;;;;;;4.53;3.40;;;8.80;99.90;;;;;;4878434;28;20470;-86
2020/12/12 14:02:18;;;;;;;3.90;3.43;;;8.90;99.90;;;;;;4941400;28;20473;-87
2020/12/12 14:04:49;;;;;;;4.60;3.13;;;8.80;99.90;;;;;;4949139;28;20443;-89
2020/12/12 14:07:41;;;;;;;5.97;3.90;;;8.80;99.90;;;;;;4936539;28;20809;-87
2020/12/12 14:11:03;;;;;;;5.10;3.70;;;8.80;99.90;;;;;;4930540;28;20569;-86
2020/12/12 14:43:39;;;;;;;3.33;3.07;;;8.70;99.90;;;;;;4893694;29;21123;-88
2020/12/12 14:46:39;;;;;;;2.50;2.17;;;8.70;99.90;;;;;;4883985;29;20437;-87
2020/12/12 14:49:23;;;;;;;;;;;;;;;;;;;;;
2020/12/12 14:55:45;;;;;;;3.50;3.20;;;8.70;99.90;;;;;;4942031;28;20855;-87
2020/12/12 14:58:49;;;;;;;3.80;2.80;;;8.60;99.90;;;;;;4930557;28;20494;-87
2020/12/12 15:05:15;;;;;;;4.03;3.07;;;8.60;99.90;;;;;;4956964;28;20444;-86
2020/12/12 15:08:24;;;;;;;5.47;2.87;;;8.60;99.90;;;;;;4890532;29;20437;-85
2020/12/12 16:56:08;;;;;;;9.00;7.67;;;8.40;99.90;;;;;;5546708;23;20507;-78
2020/12/12 16:58:34;;;;;;;8.57;7.43;;;8.40;99.90;;;;;;4939711;28;20506;-78
2020/12/12 17:00:59;;;;;;;10.93;9.47;;;8.40;99.90;;;;;;4914987;29;20224;-76
2020/12/12 17:03:29;;;;;;;9.73;8.43;;;8.40;99.90;;;;;;4923955;29;20354;-79
2020/12/12 17:05:58;;;;;;;11.83;8.83;;;8.50;99.90;;;;;;4923371;29;20206;-76
2020/12/12 17:08:23;;;;;;;13.03;8.00;;;8.50;99.90;;;;;;4919335;29;20444;-77
2020/12/12 17:10:49;;;;;;;8.83;7.23;;;8.50;99.90;;;;;;4909667;28;20517;-74
2020/12/12 21:17:15;;;;;;;12.33;10.10;;;8.50;99.90;;;;;;4932031;29;20551;-89
2020/12/12 21:20:45;;;;;;;15.33;11.87;;;8.40;99.90;;;;;;4849173;29;21088;-88
2020/12/12 22:24:43;;;;;;;15.30;10.97;;;8.50;99.90;;;;;;1205253;26;20494;-86
2020/12/12 22:31:11;;;;;;;15.17;10.83;;;8.50;99.90;;;;;;4945548;28;20544;-89
2020/12/12 23:23:36;;;;;;;10.70;7.77;;;8.40;99.90;;;;;;4938988;28;20451;-88
2020/12/12 23:29:56;;;;;;;12.00;8.33;;;8.30;99.90;;;;;;5023299;23;20546;-89
2020/12/12 23:33:00;;;;;;;;;;;;;;;;;;;;;
2020/12/12 23:36:27;;;;;;;;;;;;;;;;;;;;;
2020/12/12 23:43:01;;;;;;;12.70;9.50;;;8.30;99.90;;;;;;4895769;29;20448;-88
2020/12/12 23:46:32;;;;;;;12.67;9.27;;;8.30;99.90;;;;;;4896168;29;20452;-87
